createdAt,value
2022-12-16T00:00:11.499Z,69.23
2022-12-16T00:02:38.355Z,69.80
2022-12-16T00:05:05.466Z,68.93
2022-12-16T00:07:31.853Z,75.10
2022-12-16T00:09:57.953Z,65.37
2022-12-16T00:12:24.088Z,62.70
2022-12-16T00:14:50.222Z,67.60
2022-12-16T00:17:16.745Z,61.17
2022-12-16T00:19:43.519Z,57.33
2022-12-16T00:22:09.649Z,66.47
2022-12-16T00:24:36.170Z,61.23
2022-12-16T00:27:02.375Z,67.10
2022-12-16T00:29:28.571Z,68.23
2022-12-16T00:31:54.729Z,61.63
2022-12-16T00:34:21.040Z,70.90
2022-12-16T00:36:47.828Z,62.27
2022-12-16T00:39:14.004Z,61.77
2022-12-16T00:41:40.119Z,63.70
2022-12-16T00:44:06.309Z,58.90
2022-12-16T00:46:32.441Z,67.17
2022-12-16T00:48:58.985Z,64.07
2022-12-16T00:51:25.122Z,57.93
2022-12-16T00:53:51.945Z,65.00
2022-12-16T00:56:18.911Z,64.90
2022-12-16T00:58:45.652Z,68.13
2022-12-16T01:01:12.204Z,65.43
2022-12-16T01:03:39.276Z,61.43
2022-12-16T01:06:09.968Z,64.73
2022-12-16T01:08:36.161Z,58.73
2022-12-16T01:11:02.946Z,57.57
2022-12-16T01:13:29.143Z,56.33
2022-12-16T01:15:58.702Z,58.60
2022-12-16T01:18:24.892Z,60.67
2022-12-16T01:20:51.111Z,62.87
2022-12-16T01:23:17.889Z,71.80
2022-12-16T01:25:44.513Z,68.53
2022-12-16T01:28:11.299Z,76.53
2022-12-16T01:30:37.505Z,67.67
2022-12-16T01:33:03.691Z,64.80
2022-12-16T01:35:52.622Z,70.60
2022-12-16T01:38:16.016Z,64.10
2022-12-16T01:40:42.188Z,62.50
2022-12-16T01:43:10.742Z,60.13
2022-12-16T01:45:38.219Z,59.03
2022-12-16T01:48:10.289Z,63.27
2022-12-16T01:50:36.765Z,56.63
2022-12-16T01:53:05.660Z,61.20
2022-12-16T01:55:34.104Z,62.13
2022-12-16T01:58:04.634Z,64.77
2022-12-16T02:00:31.508Z,55.73
2022-12-16T02:02:58.039Z,59.57
2022-12-16T02:05:25.794Z,62.93
2022-12-16T02:08:00.097Z,56.50
2022-12-16T02:10:32.852Z,57.10
2022-12-16T02:13:03.579Z,62.43
2022-12-16T02:15:35.453Z,78.70
2022-12-16T02:18:07.044Z,61.67
2022-12-16T02:21:01.339Z,56.13
2022-12-16T02:24:00.478Z,61.77
2022-12-16T02:26:48.927Z,54.77
2022-12-16T02:29:33.082Z,54.97
2022-12-16T02:32:05.800Z,60.60
2022-12-16T02:34:37.992Z,57.23
2022-12-16T02:37:11.847Z,61.10
2022-12-16T02:39:39.478Z,57.50
2022-12-16T02:42:11.133Z,51.33
2022-12-16T02:44:45.604Z,58.63
2022-12-16T02:47:12.435Z,62.03
2022-12-16T02:49:45.721Z,59.83
2022-12-16T02:52:12.667Z,62.37
2022-12-16T02:54:39.248Z,60.77
2022-12-16T02:57:30.702Z,59.27
2022-12-16T03:00:00.822Z,60.60
2022-12-16T03:02:30.898Z,57.67
2022-12-16T03:05:01.726Z,57.60
2022-12-16T03:07:28.868Z,70.40
2022-12-16T03:09:55.314Z,58.07
2022-12-16T03:12:22.728Z,64.73
2022-12-16T03:14:50.854Z,61.13
2022-12-16T03:17:18.520Z,59.87
2022-12-16T03:19:49.555Z,66.93
2022-12-16T03:22:18.516Z,58.87
2022-12-16T03:24:44.663Z,60.37
2022-12-16T03:27:15.720Z,56.07
2022-12-16T03:29:45.127Z,56.33
2022-12-16T03:32:14.944Z,59.60
2022-12-16T03:34:44.329Z,61.40
2022-12-16T03:37:12.438Z,64.77
2022-12-16T03:39:41.573Z,62.40
2022-12-16T03:42:08.636Z,55.37
2022-12-16T03:44:35.437Z,54.47
2022-12-16T03:47:01.730Z,53.07
2022-12-16T03:49:28.077Z,54.77
2022-12-16T03:51:54.496Z,53.30
2022-12-16T03:54:22.419Z,62.23
2022-12-16T03:56:48.645Z,63.57
2022-12-16T03:59:14.822Z,60.17
2022-12-16T04:01:41.178Z,56.07
2022-12-16T04:04:07.430Z,54.97
2022-12-16T04:06:33.590Z,56.50
2022-12-16T04:08:59.809Z,54.57
2022-12-16T04:11:45.004Z,55.17
2022-12-16T04:14:29.938Z,58.90
2022-12-16T04:17:14.804Z,55.13
2022-12-16T04:20:16.283Z,57.03
2022-12-16T04:23:01.556Z,54.67
2022-12-16T04:25:29.782Z,56.30
2022-12-16T04:27:57.975Z,54.93
2022-12-16T04:30:24.912Z,49.97
2022-12-16T04:33:12.007Z,58.97
2022-12-16T04:35:56.546Z,56.83
2022-12-16T04:38:40.783Z,60.77
2022-12-16T04:41:25.838Z,56.83
2022-12-16T04:44:10.893Z,54.77
2022-12-16T04:46:55.734Z,58.70
2022-12-16T04:49:40.116Z,60.83
2022-12-16T04:52:24.575Z,57.27
2022-12-16T04:55:09.119Z,60.33
2022-12-16T04:57:53.532Z,54.67
2022-12-16T05:00:38.861Z,56.57
2022-12-16T05:03:24.389Z,51.83
2022-12-16T05:06:09.271Z,57.73
2022-12-16T05:08:53.788Z,54.00
2022-12-16T05:11:38.233Z,48.40
2022-12-16T05:14:22.634Z,53.70
2022-12-16T05:17:07.964Z,55.07
2022-12-16T05:19:58.891Z,51.87
2022-12-16T05:22:45.738Z,49.53
2022-12-16T05:25:30.410Z,42.97
2022-12-16T05:28:14.903Z,47.30
2022-12-16T05:30:59.308Z,48.27
2022-12-16T05:33:44.558Z,53.97
2022-12-16T05:36:28.944Z,49.40
2022-12-16T05:39:13.324Z,48.00
2022-12-16T05:41:58.389Z,49.30
2022-12-16T05:44:43.095Z,52.37
2022-12-16T05:47:27.959Z,50.60
2022-12-16T05:50:13.075Z,52.23
2022-12-16T05:52:57.449Z,52.07
2022-12-16T05:55:42.546Z,55.27
2022-12-16T05:58:27.208Z,52.73
2022-12-16T06:01:11.703Z,41.57
2022-12-16T06:03:56.632Z,54.60
2022-12-16T06:06:41.693Z,49.10
2022-12-16T06:09:26.461Z,56.50
2022-12-16T06:12:10.897Z,55.07
2022-12-16T06:14:57.091Z,54.43
2022-12-16T06:17:41.449Z,54.00
2022-12-16T06:20:26.816Z,55.93
2022-12-16T06:23:12.584Z,55.53
2022-12-16T06:26:05.922Z,56.17
2022-12-16T06:28:51.630Z,49.57
2022-12-16T06:31:35.985Z,54.70
2022-12-16T06:34:21.133Z,52.13
2022-12-16T06:37:05.509Z,54.30
2022-12-16T06:39:53.140Z,59.83
2022-12-16T06:42:38.405Z,48.87
2022-12-16T06:45:23.537Z,50.03
2022-12-16T06:48:08.420Z,56.53
2022-12-16T06:50:58.485Z,47.37
2022-12-16T06:53:43.142Z,59.17
2022-12-16T06:56:28.297Z,59.43
2022-12-16T06:59:13.030Z,51.50
2022-12-16T07:01:57.482Z,50.00
2022-12-16T07:04:42.238Z,51.87
2022-12-16T07:07:26.677Z,51.17
2022-12-16T07:10:10.976Z,53.83
2022-12-16T07:12:56.521Z,59.30
2022-12-16T07:15:40.976Z,49.83
2022-12-16T07:18:25.670Z,57.23
2022-12-16T07:21:09.985Z,55.23
2022-12-16T07:23:54.407Z,51.97
2022-12-16T07:26:38.249Z,54.80
2022-12-16T07:29:23.420Z,56.40
2022-12-16T07:32:07.814Z,55.80
2022-12-16T07:34:52.844Z,46.57
2022-12-16T07:37:40.079Z,50.30
2022-12-16T07:40:25.554Z,58.30
2022-12-16T07:43:10.206Z,56.73
2022-12-16T07:45:55.438Z,56.03
2022-12-16T07:48:51.503Z,51.53
2022-12-16T07:51:37.059Z,51.17
2022-12-16T07:54:22.320Z,56.53
2022-12-16T07:57:06.788Z,51.27
2022-12-16T07:59:51.396Z,56.67
2022-12-16T08:02:36.643Z,48.90
2022-12-16T08:05:21.615Z,54.73
2022-12-16T08:08:05.993Z,53.73
2022-12-16T08:10:50.318Z,54.30
2022-12-16T08:13:36.234Z,54.87
2022-12-16T08:16:20.921Z,54.30
2022-12-16T08:19:10.765Z,50.47
2022-12-16T08:21:55.814Z,62.47
2022-12-16T08:24:40.546Z,49.13
2022-12-16T08:27:25.064Z,58.40
2022-12-16T08:30:09.359Z,55.93
2022-12-16T08:32:58.776Z,60.83
2022-12-16T08:35:45.703Z,53.03
2022-12-16T08:38:29.940Z,55.00
2022-12-16T08:41:14.346Z,52.20
2022-12-16T08:43:58.666Z,62.27
2022-12-16T08:46:42.261Z,55.00
2022-12-16T08:49:26.932Z,59.73
2022-12-16T08:52:12.196Z,59.23
2022-12-16T08:54:56.490Z,62.30
2022-12-16T08:57:41.220Z,58.77
2022-12-16T09:00:26.872Z,57.40
2022-12-16T09:03:13.473Z,54.43
2022-12-16T09:06:03.545Z,53.77
2022-12-16T09:08:48.969Z,60.47
2022-12-16T09:11:38.461Z,57.67
2022-12-16T09:14:22.975Z,52.90
2022-12-16T09:17:07.544Z,57.70
2022-12-16T09:19:54.078Z,66.30
2022-12-16T09:22:39.916Z,54.17
2022-12-16T09:37:13.982Z,52.97
2022-12-16T09:39:58.216Z,56.47
2022-12-16T09:42:46.613Z,52.13
2022-12-16T09:45:37.775Z,60.60
2022-12-16T09:48:25.489Z,62.17
2022-12-16T09:51:12.373Z,60.17
2022-12-16T09:53:59.475Z,58.23
2022-12-16T09:56:48.015Z,61.90
2022-12-16T09:59:35.017Z,59.07
2022-12-16T10:02:19.488Z,60.40
2022-12-16T10:05:09.373Z,65.30
2022-12-16T10:07:58.288Z,67.73
2022-12-16T10:10:56.498Z,61.30
2022-12-16T10:13:45.724Z,71.20
2022-12-16T10:16:37.206Z,76.03
2022-12-16T10:19:28.636Z,69.37
2022-12-16T10:22:18.850Z,64.50
2022-12-16T10:25:10.927Z,79.23
2022-12-16T10:28:01.981Z,63.03
2022-12-16T10:30:46.817Z,76.43
2022-12-16T10:33:33.505Z,69.43
2022-12-16T10:36:18.386Z,63.93
2022-12-16T10:39:06.698Z,69.87
2022-12-16T10:41:49.191Z,67.53
2022-12-16T10:44:41.265Z,98.60
2022-12-16T10:47:26.576Z,61.93
2022-12-16T10:50:13.579Z,70.33
2022-12-16T10:53:13.838Z,66.03
2022-12-16T10:56:07.963Z,62.17
2022-12-16T10:59:00.399Z,71.17
2022-12-16T11:01:46.617Z,69.50
2022-12-16T11:04:46.274Z,72.43
2022-12-16T11:07:44.533Z,63.63
2022-12-16T11:10:47.816Z,75.03
2022-12-16T11:13:39.520Z,67.90
2022-12-16T11:16:27.815Z,67.40
2022-12-16T11:19:13.434Z,87.77
2022-12-16T11:21:57.999Z,73.37
2022-12-16T11:24:42.900Z,69.17
2022-12-16T11:27:32.760Z,78.13
2022-12-16T11:30:18.802Z,78.27
2022-12-16T11:33:05.676Z,66.30
2022-12-16T11:35:52.869Z,80.07
2022-12-16T11:38:41.625Z,75.03
2022-12-16T11:41:27.356Z,83.67
2022-12-16T11:44:13.283Z,72.27
2022-12-16T11:46:57.722Z,75.77
2022-12-16T11:49:46.227Z,78.43
2022-12-16T11:52:37.800Z,79.07
2022-12-16T11:56:03.725Z,71.20
2022-12-16T11:58:41.471Z,75.67
2022-12-16T12:01:29.695Z,79.60
2022-12-16T12:04:14.327Z,79.77
2022-12-16T12:07:12.194Z,78.60
2022-12-16T12:10:01.008Z,88.33
2022-12-16T12:12:50.910Z,87.70
2022-12-16T12:15:39.764Z,92.67
2022-12-16T12:18:40.975Z,91.53
2022-12-16T12:21:29.119Z,91.17
2022-12-16T12:24:18.932Z,81.80
2022-12-16T12:27:08.457Z,85.37
2022-12-16T12:30:02.781Z,83.17
2022-12-16T12:32:54.208Z,86.57
2022-12-16T12:35:50.802Z,93.93
2022-12-16T12:38:38.574Z,82.50
2022-12-16T12:41:27.786Z,88.47
2022-12-16T12:44:20.102Z,90.10
2022-12-16T12:47:19.066Z,91.10
2022-12-16T12:50:07.763Z,82.37
2022-12-16T12:53:13.911Z,94.87
2022-12-16T12:56:01.744Z,105.60
2022-12-16T12:58:48.131Z,105.07
2022-12-16T13:01:33.970Z,90.47
2022-12-16T13:04:21.174Z,95.47
2022-12-16T13:07:05.576Z,92.33
2022-12-16T13:09:51.430Z,93.50
2022-12-16T13:12:45.504Z,98.87
2022-12-16T13:15:37.912Z,91.13
2022-12-16T13:18:42.804Z,90.70
2022-12-16T13:22:01.966Z,112.73
2022-12-16T13:24:56.318Z,100.60
2022-12-16T13:27:41.620Z,103.20
2022-12-16T13:30:38.850Z,95.70
2022-12-16T13:33:25.672Z,110.63
2022-12-16T13:36:11.862Z,112.17
2022-12-16T13:39:03.647Z,95.77
2022-12-16T13:42:09.235Z,110.47
2022-12-16T13:45:16.473Z,112.27
2022-12-16T13:48:19.420Z,119.30
2022-12-16T13:51:19.887Z,100.47
2022-12-16T13:54:07.458Z,93.80
2022-12-16T13:56:53.320Z,110.20
2022-12-16T13:59:40.228Z,113.17
2022-12-16T14:02:38.413Z,112.30
2022-12-16T14:05:33.291Z,113.57
2022-12-16T14:08:17.642Z,122.87
2022-12-16T14:11:02.781Z,124.47
2022-12-16T14:13:51.543Z,101.73
2022-12-16T14:16:57.185Z,123.80
2022-12-16T14:19:47.062Z,108.13
2022-12-16T14:22:42.444Z,106.37
2022-12-16T14:25:31.903Z,95.50
2022-12-16T14:28:17.189Z,97.13
2022-12-16T14:31:01.625Z,94.00
2022-12-16T14:33:47.601Z,97.53
2022-12-16T14:36:39.303Z,91.07
2022-12-16T14:39:28.610Z,86.60
2022-12-16T14:42:13.258Z,83.57
2022-12-16T14:44:58.734Z,84.10
2022-12-16T14:47:44.582Z,84.83
2022-12-16T14:50:38.999Z,107.00
2022-12-16T14:53:44.035Z,89.17
2022-12-16T14:56:48.728Z,90.80
2022-12-16T14:59:33.448Z,84.03
2022-12-16T15:02:30.806Z,104.40
2022-12-16T15:05:15.573Z,104.43
2022-12-16T15:08:02.673Z,86.03
2022-12-16T15:10:47.627Z,118.90
2022-12-16T15:13:34.947Z,118.53
2022-12-16T15:16:20.177Z,116.83
2022-12-16T15:19:07.669Z,110.13
2022-12-16T15:21:52.402Z,122.47
2022-12-16T15:24:40.763Z,111.90
2022-12-16T15:27:33.249Z,123.50
2022-12-16T15:30:17.738Z,207.97
2022-12-16T15:33:10.795Z,124.53
2022-12-16T15:35:56.422Z,98.97
2022-12-16T15:38:45.655Z,99.07
2022-12-16T15:41:39.598Z,99.97
2022-12-16T15:44:32.000Z,94.67
2022-12-16T15:47:16.654Z,102.30
2022-12-16T15:50:04.529Z,111.73
2022-12-16T15:52:53.692Z,108.03
2022-12-16T15:55:47.868Z,105.13
2022-12-16T15:58:36.915Z,123.10
2022-12-16T16:01:21.786Z,120.47
2022-12-16T16:04:08.100Z,133.63
2022-12-16T16:06:53.231Z,113.57
2022-12-16T16:09:40.016Z,155.43
2022-12-16T16:12:26.653Z,115.90
2022-12-16T16:15:11.020Z,108.93
2022-12-16T16:17:55.782Z,103.53
2022-12-16T16:20:40.618Z,124.63
2022-12-16T16:23:26.655Z,144.57
2022-12-16T16:26:11.887Z,120.13
2022-12-16T16:28:56.332Z,141.13
2022-12-16T16:31:40.708Z,131.83
2022-12-16T16:34:25.540Z,124.50
2022-12-16T16:37:11.947Z,124.67
2022-12-16T16:39:56.375Z,116.00
2022-12-16T16:42:42.296Z,119.07
2022-12-16T16:45:27.559Z,118.93
2022-12-16T16:48:13.009Z,110.73
2022-12-16T16:50:57.270Z,115.67
2022-12-16T16:53:41.711Z,106.40
2022-12-16T16:56:27.065Z,110.27
2022-12-16T16:59:12.145Z,123.13
2022-12-16T17:01:56.710Z,112.40
2022-12-16T17:04:41.439Z,113.53
2022-12-16T17:07:26.246Z,106.17
2022-12-16T17:10:25.124Z,108.40
2022-12-16T17:13:09.845Z,109.10
2022-12-16T17:15:55.549Z,105.97
2022-12-16T17:18:44.846Z,108.30
2022-12-16T17:21:31.516Z,104.20
2022-12-16T17:24:15.770Z,103.83
2022-12-16T17:27:01.250Z,114.67
2022-12-16T17:30:00.843Z,115.50
2022-12-16T17:40:19.182Z,117.10
2022-12-16T17:46:50.709Z,408.33
2022-12-16T17:49:37.788Z,286.13
2022-12-16T17:52:22.559Z,216.73
2022-12-16T17:55:06.994Z,194.27
2022-12-16T17:57:52.190Z,163.60
2022-12-16T18:00:37.063Z,185.40
2022-12-16T18:03:22.224Z,155.80
2022-12-16T18:06:06.917Z,158.57
2022-12-16T18:08:51.762Z,164.67
2022-12-16T18:11:38.919Z,143.33
2022-12-16T18:14:24.363Z,137.77
2022-12-16T18:17:08.984Z,137.73
2022-12-16T18:19:53.453Z,144.63
2022-12-16T18:22:37.897Z,132.00
2022-12-16T18:25:23.091Z,134.23
2022-12-16T18:28:07.726Z,128.13
2022-12-16T18:30:53.460Z,134.50
2022-12-16T18:33:38.166Z,133.93
2022-12-16T18:36:22.855Z,139.67
2022-12-16T18:39:07.335Z,124.20
2022-12-16T18:41:51.680Z,128.27
2022-12-16T18:44:36.046Z,137.50
2022-12-16T18:47:21.150Z,125.67
2022-12-16T18:50:05.661Z,118.80
2022-12-16T18:52:49.962Z,125.27
2022-12-16T18:55:34.404Z,123.97
2022-12-16T19:01:37.805Z,121.93
2022-12-16T19:04:25.974Z,131.83
2022-12-16T19:07:10.760Z,133.13
2022-12-16T19:09:55.189Z,118.23
2022-12-16T19:12:36.023Z,112.57
2022-12-16T19:15:20.696Z,142.07
2022-12-16T19:18:07.108Z,125.90
2022-12-16T19:20:52.274Z,125.90
2022-12-16T19:23:38.484Z,116.80
2022-12-16T19:26:23.000Z,130.73
2022-12-16T19:29:07.537Z,110.83
2022-12-16T19:31:52.012Z,118.10
2022-12-16T19:34:36.802Z,105.00
2022-12-16T19:37:22.146Z,103.93
2022-12-16T19:40:06.505Z,124.17
2022-12-16T19:42:50.020Z,124.07
2022-12-16T19:45:35.045Z,110.07
2022-12-16T19:48:19.979Z,111.23
2022-12-16T19:51:04.327Z,115.57
2022-12-16T19:53:49.498Z,119.77
2022-12-16T19:56:34.195Z,118.53
2022-12-16T19:59:18.539Z,116.03
2022-12-16T20:02:03.394Z,106.03
2022-12-16T20:04:48.263Z,108.67
2022-12-16T20:07:32.584Z,101.73
2022-12-16T20:10:17.833Z,113.50
2022-12-16T20:13:02.258Z,108.17
2022-12-16T20:27:41.855Z,102.47
2022-12-16T20:30:28.009Z,96.07
2022-12-16T20:33:12.522Z,108.77
2022-12-16T20:35:57.046Z,100.50
2022-12-16T20:38:41.386Z,107.60
2022-12-16T20:41:25.836Z,90.63
2022-12-16T20:44:11.080Z,90.53
2022-12-16T20:46:56.554Z,97.07
2022-12-16T20:49:41.082Z,98.93
2022-12-16T20:52:25.396Z,91.77
2022-12-16T20:55:09.744Z,85.90
2022-12-16T20:57:54.427Z,77.33
2022-12-16T21:00:41.649Z,105.70
2022-12-16T21:03:26.853Z,80.37
2022-12-16T21:06:11.333Z,91.40
2022-12-16T21:08:55.852Z,88.00
2022-12-16T21:11:40.709Z,81.10
2022-12-16T21:14:25.102Z,80.33
2022-12-16T21:17:10.376Z,86.47
2022-12-16T21:19:56.074Z,84.13
2022-12-16T21:22:40.633Z,79.90
2022-12-16T21:25:25.979Z,75.70
2022-12-16T21:28:16.467Z,72.13
2022-12-16T21:31:01.193Z,77.40
2022-12-16T21:33:46.707Z,87.00
2022-12-16T21:36:31.793Z,69.50
2022-12-16T21:39:16.502Z,91.97
2022-12-16T21:42:00.689Z,89.27
2022-12-16T21:44:44.993Z,75.30
2022-12-16T21:47:29.293Z,68.37
2022-12-16T21:50:14.585Z,82.17
2022-12-16T21:52:59.415Z,84.53
2022-12-16T21:55:43.733Z,70.73
2022-12-16T21:58:28.550Z,68.97
2022-12-16T22:01:13.460Z,76.33
2022-12-16T22:03:58.342Z,76.60
2022-12-16T22:06:48.445Z,92.97
2022-12-16T22:09:33.683Z,113.97
2022-12-16T22:12:19.308Z,82.37
2022-12-16T22:15:04.041Z,89.97
2022-12-16T22:17:54.472Z,100.43
2022-12-16T22:20:42.502Z,102.57
2022-12-16T22:23:28.458Z,92.20
2022-12-16T22:26:18.792Z,88.87
2022-12-16T22:29:03.385Z,96.63
2022-12-16T22:31:47.827Z,90.03
2022-12-16T22:34:31.927Z,97.27
2022-12-16T22:37:16.369Z,112.43
2022-12-16T22:40:01.873Z,104.83
2022-12-16T22:42:46.527Z,94.77
2022-12-16T22:45:31.121Z,105.83
2022-12-16T22:48:15.474Z,92.30
2022-12-16T22:50:59.789Z,93.77
2022-12-16T22:53:45.121Z,98.57
2022-12-16T22:56:30.853Z,94.40
2022-12-16T22:59:15.317Z,109.15
2022-12-16T23:01:59.793Z,99.67
2022-12-16T23:04:44.492Z,91.40
2022-12-16T23:07:28.766Z,94.13
2022-12-16T23:10:13.345Z,90.37
2022-12-16T23:12:58.797Z,95.87
2022-12-16T23:15:43.720Z,100.00
2022-12-16T23:18:28.206Z,104.23
2022-12-16T23:21:12.637Z,103.13
2022-12-16T23:23:57.220Z,84.00
2022-12-16T23:26:42.361Z,93.67
2022-12-16T23:29:28.127Z,93.67
2022-12-16T23:32:18.027Z,112.60
2022-12-16T23:35:03.131Z,108.00
2022-12-16T23:37:47.876Z,99.43
2022-12-16T23:40:32.530Z,105.50
2022-12-16T23:43:17.049Z,97.17
2022-12-16T23:46:02.490Z,115.13
2022-12-16T23:48:46.810Z,106.40
2022-12-16T23:51:31.453Z,102.37
2022-12-16T23:54:15.830Z,88.23
2022-12-16T23:57:00.282Z,102.33
2022-12-16T23:59:44.704Z,103.47
